createdAt,value
2023-04-28T00:00:08.904Z,56.70
2023-04-28T00:02:37.115Z,56.70
2023-04-28T00:05:07.411Z,56.70
2023-04-28T00:07:35.654Z,56.70
2023-04-28T00:10:03.802Z,56.70
2023-04-28T00:12:31.918Z,56.60
2023-04-28T00:15:00.031Z,56.60
2023-04-28T00:17:28.249Z,56.60
2023-04-28T00:19:56.550Z,56.60
2023-04-28T00:22:26.099Z,56.60
2023-04-28T00:24:54.266Z,56.60
2023-04-28T00:27:22.381Z,56.60
2023-04-28T00:29:50.493Z,56.60
2023-04-28T00:32:18.609Z,56.50
2023-04-28T00:34:46.755Z,56.50
2023-04-28T00:37:17.033Z,56.50
2023-04-28T00:39:47.231Z,56.50
2023-04-28T00:42:15.988Z,56.50
2023-04-28T00:44:44.143Z,56.50
2023-04-28T00:47:12.664Z,56.50
2023-04-28T00:49:40.957Z,56.50
2023-04-28T00:52:09.069Z,56.50
2023-04-28T00:54:37.635Z,56.40
2023-04-28T00:57:07.844Z,56.40
2023-04-28T00:59:36.024Z,56.40
2023-04-28T01:02:06.488Z,56.40
2023-04-28T01:04:35.885Z,56.40
2023-04-28T01:07:04.632Z,56.40
2023-04-28T01:09:32.893Z,56.40
2023-04-28T01:12:01.871Z,56.40
2023-04-28T01:14:46.806Z,56.40
2023-04-28T01:17:15.184Z,56.40
2023-04-28T01:19:43.713Z,56.40
2023-04-28T01:22:15.254Z,56.40
2023-04-28T01:24:45.978Z,56.40
2023-04-28T01:27:15.713Z,56.40
2023-04-28T01:29:43.848Z,56.40
2023-04-28T01:32:12.044Z,56.30
2023-04-28T01:34:41.104Z,56.40
2023-04-28T01:37:09.329Z,56.40
2023-04-28T01:39:38.669Z,56.40
2023-04-28T01:42:08.293Z,56.30
2023-04-28T01:44:36.448Z,56.40
2023-04-28T01:47:06.540Z,56.40
2023-04-28T01:49:36.758Z,56.40
2023-04-28T01:52:05.110Z,56.30
2023-04-28T01:54:33.357Z,56.30
2023-04-28T01:57:02.444Z,56.30
2023-04-28T01:59:32.162Z,56.30
2023-04-28T02:02:00.341Z,56.30
2023-04-28T02:04:28.729Z,56.30
2023-04-28T02:06:56.872Z,56.30
2023-04-28T02:09:24.999Z,56.30
2023-04-28T02:11:53.754Z,56.30
2023-04-28T02:14:23.596Z,56.30
2023-04-28T02:16:53.263Z,56.30
2023-04-28T02:19:21.416Z,56.40
2023-04-28T02:21:49.529Z,56.30
2023-04-28T02:24:17.895Z,56.30
2023-04-28T02:26:46.371Z,56.40
2023-04-28T02:29:14.549Z,56.30
2023-04-28T02:31:42.760Z,56.40
2023-04-28T02:34:12.283Z,56.40
2023-04-28T02:36:40.838Z,56.40
2023-04-28T02:39:09.151Z,56.40
2023-04-28T02:41:37.277Z,56.40
2023-04-28T02:44:05.545Z,56.40
2023-04-28T02:46:33.701Z,56.40
2023-04-28T02:49:01.822Z,56.40
2023-04-28T02:51:31.611Z,56.40
2023-04-28T02:53:59.734Z,56.40
2023-04-28T02:56:29.813Z,56.40
2023-04-28T02:58:58.306Z,56.40
2023-04-28T03:01:26.863Z,56.40
2023-04-28T03:03:55.252Z,56.40
2023-04-28T03:06:23.500Z,56.40
2023-04-28T03:08:53.000Z,56.40
2023-04-28T03:11:21.620Z,56.40
2023-04-28T03:13:49.794Z,56.40
2023-04-28T03:16:17.984Z,56.40
2023-04-28T03:18:46.254Z,56.40
2023-04-28T03:21:14.430Z,56.40
2023-04-28T03:23:42.588Z,56.40
2023-04-28T03:26:12.100Z,56.40
2023-04-28T03:28:40.374Z,56.40
2023-04-28T03:31:08.495Z,56.40
2023-04-28T03:33:36.724Z,56.30
2023-04-28T03:36:05.622Z,56.30
2023-04-28T03:38:33.900Z,56.40
2023-04-28T03:41:02.062Z,56.40
2023-04-28T03:43:33.156Z,56.30
2023-04-28T03:46:16.393Z,56.40
2023-04-28T03:48:46.146Z,56.40
2023-04-28T03:51:14.773Z,56.40
2023-04-28T03:53:43.222Z,56.50
2023-04-28T03:56:11.940Z,56.50
2023-04-28T03:58:42.457Z,56.50
2023-04-28T04:01:10.794Z,56.50
2023-04-28T04:03:39.871Z,56.50
2023-04-28T04:06:08.589Z,56.50
2023-04-28T04:08:36.940Z,56.40
2023-04-28T04:11:05.093Z,56.30
2023-04-28T04:13:33.405Z,56.20
2023-04-28T04:16:07.956Z,56.10
2023-04-28T04:18:36.760Z,56.10
2023-04-28T04:21:21.732Z,56.00
2023-04-28T04:23:51.972Z,56.00
2023-04-28T04:26:20.345Z,56.00
2023-04-28T04:28:50.291Z,55.90
2023-04-28T04:31:20.752Z,55.90
2023-04-28T04:33:50.715Z,55.90
2023-04-28T04:36:21.137Z,55.90
2023-04-28T04:38:49.297Z,55.90
2023-04-28T04:41:20.693Z,55.90
2023-04-28T04:43:49.586Z,55.80
2023-04-28T04:46:19.684Z,55.80
2023-04-28T04:48:47.901Z,55.80
2023-04-28T04:51:16.080Z,55.90
2023-04-28T04:53:44.277Z,55.90
2023-04-28T04:56:12.675Z,55.90
2023-04-28T04:58:41.564Z,55.90
2023-04-28T05:01:43.463Z,56.00
2023-04-28T05:04:11.886Z,56.10
2023-04-28T05:06:41.079Z,56.20
2023-04-28T05:09:09.205Z,56.40
2023-04-28T05:11:37.881Z,56.50
2023-04-28T05:14:06.043Z,56.50
2023-04-28T05:16:34.780Z,56.60
2023-04-28T05:19:10.727Z,56.60
2023-04-28T05:21:38.866Z,56.70
2023-04-28T05:24:07.657Z,56.80
2023-04-28T05:26:37.322Z,56.90
2023-04-28T05:29:09.734Z,56.90
2023-04-28T05:31:38.089Z,57.00
2023-04-28T05:34:06.406Z,57.10
2023-04-28T05:36:36.083Z,57.10
2023-04-28T05:39:05.138Z,57.20
2023-04-28T05:41:33.294Z,57.20
2023-04-28T05:44:01.555Z,57.20
2023-04-28T05:46:31.255Z,57.20
2023-04-28T05:49:02.580Z,57.20
2023-04-28T05:51:36.499Z,57.20
2023-04-28T05:54:04.802Z,57.20
2023-04-28T05:56:38.160Z,57.20
2023-04-28T05:59:06.508Z,57.30
2023-04-28T06:01:34.842Z,57.30
2023-04-28T06:04:03.229Z,57.30
2023-04-28T06:06:32.196Z,57.30
2023-04-28T06:09:03.008Z,57.30
2023-04-28T06:11:31.613Z,57.40
2023-04-28T06:13:59.834Z,57.30
2023-04-28T06:16:28.236Z,57.30
2023-04-28T06:18:56.520Z,57.40
2023-04-28T06:21:25.031Z,57.40
2023-04-28T06:23:53.208Z,57.40
2023-04-28T06:26:23.563Z,57.40
2023-04-28T06:28:52.255Z,57.50
2023-04-28T06:31:20.501Z,57.50
2023-04-28T06:33:48.649Z,57.50
2023-04-28T06:36:18.141Z,57.50
2023-04-28T06:38:46.951Z,57.60
2023-04-28T06:41:15.082Z,57.60
2023-04-28T06:43:47.938Z,57.60
2023-04-28T06:46:21.646Z,57.70
2023-04-28T06:48:50.319Z,57.70
2023-04-28T06:51:18.488Z,58.40
2023-04-28T06:53:46.614Z,58.80
2023-04-28T06:56:16.716Z,59.10
2023-04-28T06:58:45.082Z,59.20
2023-04-28T07:01:14.705Z,59.50
2023-04-28T07:03:42.948Z,59.50
2023-04-28T07:06:11.452Z,59.70
2023-04-28T07:08:39.696Z,59.80
2023-04-28T07:11:07.834Z,59.90
2023-04-28T07:13:36.251Z,60.00
2023-04-28T07:16:04.988Z,60.00
2023-04-28T07:18:34.572Z,60.10
2023-04-28T07:21:05.262Z,60.20
2023-04-28T07:23:33.749Z,60.20
2023-04-28T07:26:01.890Z,60.30
2023-04-28T07:28:30.121Z,60.50
2023-04-28T07:30:58.548Z,60.70
2023-04-28T07:33:26.768Z,60.80
2023-04-28T07:35:56.433Z,60.70
2023-04-28T07:38:24.687Z,60.70
2023-04-28T07:40:53.444Z,60.70
2023-04-28T07:43:21.753Z,60.70
2023-04-28T07:45:50.086Z,60.70
2023-04-28T07:48:18.482Z,60.60
2023-04-28T07:50:46.657Z,60.70
2023-04-28T07:53:16.201Z,60.70
2023-04-28T07:55:45.852Z,60.70
2023-04-28T07:58:14.362Z,60.70
2023-04-28T08:00:42.521Z,60.60
2023-04-28T08:03:11.056Z,60.40
2023-04-28T08:05:40.204Z,60.30
2023-04-28T08:08:08.399Z,60.40
2023-04-28T08:10:38.080Z,60.50
2023-04-28T08:13:06.226Z,60.50
2023-04-28T08:15:34.434Z,60.50
2023-04-28T08:18:03.005Z,60.40
2023-04-28T08:20:32.623Z,60.50
2023-04-28T08:23:00.862Z,60.50
2023-04-28T08:25:29.059Z,60.50
2023-04-28T08:27:58.725Z,60.50
2023-04-28T08:30:26.962Z,60.50
2023-04-28T08:32:55.121Z,60.40
2023-04-28T08:35:23.360Z,60.50
2023-04-28T08:37:52.981Z,60.50
2023-04-28T08:40:21.894Z,60.50
2023-04-28T08:42:50.116Z,60.40
2023-04-28T08:45:19.673Z,60.50
2023-04-28T08:47:50.635Z,60.40
2023-04-28T08:50:22.957Z,60.40
2023-04-28T08:52:54.318Z,60.30
2023-04-28T08:55:23.607Z,60.50
2023-04-28T08:57:52.593Z,60.50
2023-04-28T09:00:22.272Z,60.50
2023-04-28T09:02:51.240Z,60.40
2023-04-28T09:05:19.776Z,60.40
2023-04-28T09:07:48.883Z,60.50
2023-04-28T09:10:18.864Z,60.50
2023-04-28T09:12:47.124Z,60.40
2023-04-28T09:15:33.987Z,60.30
2023-04-28T09:18:03.690Z,60.30
2023-04-28T09:20:34.068Z,60.30
2023-04-28T09:23:15.925Z,60.20
2023-04-28T09:25:57.823Z,60.30
2023-04-28T09:28:26.038Z,60.20
2023-04-28T09:30:55.797Z,60.40
2023-04-28T09:33:24.460Z,60.40
2023-04-28T09:35:52.823Z,60.50
2023-04-28T09:38:22.364Z,60.40
2023-04-28T09:40:58.357Z,60.30
2023-04-28T09:43:28.240Z,60.20
2023-04-28T09:45:59.122Z,60.10
2023-04-28T09:48:33.006Z,60.00
2023-04-28T09:51:02.746Z,59.90
2023-04-28T09:53:31.764Z,59.90
2023-04-28T09:56:02.075Z,59.80
2023-04-28T09:58:32.200Z,59.70
2023-04-28T10:01:03.187Z,59.70
2023-04-28T10:03:32.439Z,59.80
2023-04-28T10:06:01.002Z,60.00
2023-04-28T10:08:29.583Z,60.00
2023-04-28T10:10:58.586Z,60.10
2023-04-28T10:13:27.097Z,60.10
2023-04-28T10:15:58.219Z,60.00
2023-04-28T10:18:28.673Z,60.20
2023-04-28T10:21:01.163Z,60.30
2023-04-28T10:24:10.177Z,60.20
2023-04-28T10:27:04.363Z,60.20
2023-04-28T10:29:34.270Z,60.00
2023-04-28T10:32:23.473Z,60.00
2023-04-28T10:34:53.513Z,59.80
2023-04-28T10:37:42.511Z,59.80
2023-04-28T10:40:32.568Z,59.60
2023-04-28T10:43:00.806Z,59.50
2023-04-28T10:46:06.255Z,59.60
2023-04-28T10:49:08.446Z,59.40
2023-04-28T10:51:38.164Z,59.50
2023-04-28T10:54:28.359Z,59.30
2023-04-28T10:57:16.359Z,59.40
2023-04-28T10:59:44.553Z,59.20
2023-04-28T11:02:44.395Z,59.20
2023-04-28T11:05:19.085Z,59.00
2023-04-28T11:08:30.956Z,59.10
2023-04-28T11:11:24.295Z,58.90
2023-04-28T11:13:53.112Z,58.90
2023-04-28T11:16:23.582Z,58.80
2023-04-28T11:19:06.926Z,59.10
2023-04-28T11:21:35.164Z,59.00
2023-04-28T11:24:11.144Z,58.90
2023-04-28T11:26:41.080Z,59.20
2023-04-28T11:29:09.680Z,58.70
2023-04-28T11:31:38.303Z,58.40
2023-04-28T11:34:07.836Z,58.10
2023-04-28T11:36:37.400Z,57.90
2023-04-28T11:39:07.542Z,58.10
2023-04-28T11:41:36.649Z,58.00
2023-04-28T11:44:13.349Z,57.90
2023-04-28T11:46:50.923Z,57.60
2023-04-28T11:49:20.087Z,57.80
2023-04-28T11:51:50.039Z,57.60
2023-04-28T11:54:22.794Z,57.50
2023-04-28T11:56:51.751Z,58.00
2023-04-28T11:59:26.066Z,57.70
2023-04-28T12:01:57.226Z,58.00
2023-04-28T12:04:30.541Z,57.70
2023-04-28T12:07:03.833Z,57.70
2023-04-28T12:09:32.693Z,57.50
2023-04-28T12:12:03.252Z,57.80
2023-04-28T12:14:35.575Z,57.90
2023-04-28T12:17:04.174Z,57.70
2023-04-28T12:19:44.168Z,57.80
2023-04-28T12:22:12.752Z,57.80
2023-04-28T12:24:40.988Z,58.20
2023-04-28T12:27:17.004Z,58.60
2023-04-28T12:29:49.514Z,59.00
2023-04-28T12:32:17.814Z,59.10
2023-04-28T12:34:47.520Z,59.00
2023-04-28T12:37:15.779Z,59.20
2023-04-28T12:39:44.329Z,59.20
2023-04-28T12:42:12.887Z,59.10
2023-04-28T12:44:41.250Z,59.30
2023-04-28T12:47:12.303Z,59.40
2023-04-28T12:49:41.574Z,59.30
2023-04-28T12:52:09.980Z,59.20
2023-04-28T12:54:38.274Z,59.40
2023-04-28T12:57:07.785Z,59.20
2023-04-28T12:59:37.286Z,59.20
2023-04-28T13:02:06.492Z,59.50
2023-04-28T13:04:37.105Z,59.40
2023-04-28T13:07:07.361Z,59.20
2023-04-28T13:09:38.458Z,59.40
2023-04-28T13:12:08.986Z,59.30
2023-04-28T13:14:37.868Z,59.60
2023-04-28T13:17:07.069Z,59.50
2023-04-28T13:19:36.939Z,59.30
2023-04-28T13:22:06.829Z,59.20
2023-04-28T13:24:36.249Z,59.30
2023-04-28T13:27:10.347Z,59.40
2023-04-28T13:29:39.049Z,59.50
2023-04-28T13:32:08.429Z,59.30
2023-04-28T13:34:39.097Z,59.50
2023-04-28T13:37:07.314Z,59.40
2023-04-28T13:39:35.639Z,59.60
2023-04-28T13:42:03.864Z,59.30
2023-04-28T13:44:32.639Z,59.30
2023-04-28T13:47:00.966Z,59.20
2023-04-28T13:49:29.927Z,59.40
2023-04-28T13:51:59.484Z,59.20
2023-04-28T13:54:27.719Z,59.10
2023-04-28T13:56:57.174Z,59.20
2023-04-28T13:59:25.943Z,59.10
2023-04-28T14:01:55.017Z,59.10
2023-04-28T14:04:23.349Z,59.20
2023-04-28T14:06:54.100Z,59.20
2023-04-28T14:09:24.846Z,59.20
2023-04-28T14:11:52.978Z,59.20
2023-04-28T14:14:21.354Z,59.30
2023-04-28T14:16:49.882Z,59.10
2023-04-28T14:19:18.655Z,59.10
2023-04-28T14:21:46.850Z,59.00
2023-04-28T14:24:15.027Z,59.00
2023-04-28T14:26:44.920Z,59.00
2023-04-28T14:29:13.176Z,59.00
2023-04-28T14:31:41.475Z,59.40
2023-04-28T14:34:09.761Z,59.10
2023-04-28T14:36:42.289Z,59.50
2023-04-28T14:39:10.696Z,59.50
2023-04-28T14:41:38.823Z,59.30
2023-04-28T14:44:09.560Z,59.50
2023-04-28T14:46:38.135Z,59.50
2023-04-28T14:49:08.251Z,59.40
2023-04-28T14:51:36.527Z,59.30
2023-04-28T14:54:05.210Z,59.30
2023-04-28T14:56:34.043Z,59.60
2023-04-28T14:59:04.841Z,59.60
2023-04-28T15:01:34.470Z,59.30
2023-04-28T15:04:03.024Z,59.60
2023-04-28T15:06:32.875Z,59.70
2023-04-28T15:09:01.231Z,59.90
2023-04-28T15:11:29.666Z,59.70
2023-04-28T15:13:57.798Z,59.80
2023-04-28T15:16:26.300Z,59.70
2023-04-28T15:18:55.847Z,59.70
2023-04-28T15:21:24.307Z,59.70
2023-04-28T15:23:52.465Z,60.00
2023-04-28T15:26:20.671Z,60.20
2023-04-28T15:28:48.861Z,60.10
2023-04-28T15:31:17.192Z,60.20
2023-04-28T15:33:45.356Z,60.40
2023-04-28T15:36:15.037Z,60.20
2023-04-28T15:38:45.221Z,60.00
2023-04-28T15:41:13.705Z,59.70
2023-04-28T15:43:42.884Z,59.90
2023-04-28T15:46:11.411Z,60.20
2023-04-28T15:48:39.663Z,60.10
2023-04-28T15:51:08.247Z,60.00
2023-04-28T15:53:38.031Z,60.10
2023-04-28T15:56:06.401Z,60.00
2023-04-28T15:58:34.693Z,60.20
2023-04-28T16:01:03.707Z,60.00
2023-04-28T16:03:32.124Z,59.90
2023-04-28T16:06:01.093Z,60.00
2023-04-28T16:08:29.395Z,59.80
2023-04-28T16:10:59.060Z,59.60
2023-04-28T16:13:27.281Z,59.60
2023-04-28T16:15:55.392Z,59.60
2023-04-28T16:18:23.738Z,59.50
2023-04-28T16:20:52.099Z,59.60
2023-04-28T16:23:20.692Z,59.90
2023-04-28T16:25:50.802Z,59.70
2023-04-28T16:28:20.384Z,59.50
2023-04-28T16:30:49.548Z,59.60
2023-04-28T16:33:17.756Z,59.50
2023-04-28T16:35:45.907Z,59.50
2023-04-28T16:38:14.033Z,59.60
2023-04-28T16:40:42.173Z,59.80
2023-04-28T16:43:10.270Z,59.70
2023-04-28T16:45:40.123Z,59.60
2023-04-28T16:48:08.442Z,59.70
2023-04-28T16:50:38.230Z,59.60
2023-04-28T16:53:08.146Z,59.60
2023-04-28T16:55:37.400Z,59.50
2023-04-28T16:58:06.411Z,59.50
2023-04-28T17:00:34.622Z,59.50
2023-04-28T17:03:05.275Z,59.60
2023-04-28T17:05:34.050Z,59.80
2023-04-28T17:08:02.497Z,60.00
2023-04-28T17:10:32.637Z,60.00
2023-04-28T17:13:00.783Z,60.10
2023-04-28T17:15:29.471Z,60.30
2023-04-28T17:17:58.339Z,60.30
2023-04-28T17:20:28.650Z,60.40
2023-04-28T17:22:57.456Z,60.50
2023-04-28T17:25:26.131Z,60.40
2023-04-28T17:27:54.927Z,60.50
2023-04-28T17:30:25.990Z,60.40
2023-04-28T17:32:55.924Z,60.50
2023-04-28T17:35:24.915Z,60.50
2023-04-28T17:37:55.297Z,60.40
2023-04-28T17:40:24.750Z,60.40
2023-04-28T17:42:55.719Z,60.40
2023-04-28T17:45:24.752Z,60.40
2023-04-28T17:47:53.496Z,60.50
2023-04-28T17:50:22.454Z,60.50
2023-04-28T17:52:51.837Z,60.50
2023-04-28T17:55:22.177Z,60.50
2023-04-28T17:57:51.926Z,60.50
2023-04-28T18:00:20.631Z,60.60
2023-04-28T18:02:49.081Z,60.50
2023-04-28T18:05:17.772Z,60.60
2023-04-28T18:07:47.249Z,60.60
2023-04-28T18:10:17.180Z,60.60
2023-04-28T18:12:47.864Z,60.60
2023-04-28T18:15:16.322Z,60.60
2023-04-28T18:17:44.964Z,60.50
2023-04-28T18:20:14.304Z,60.50
2023-04-28T18:22:42.712Z,60.50
2023-04-28T18:25:13.392Z,60.50
2023-04-28T18:27:42.195Z,60.60
2023-04-28T18:30:13.014Z,60.50
2023-04-28T18:32:42.442Z,60.60
2023-04-28T18:35:11.581Z,60.50
2023-04-28T18:37:41.048Z,60.50
2023-04-28T18:40:10.412Z,60.50
2023-04-28T18:42:38.676Z,60.50
2023-04-28T18:45:09.034Z,60.50
2023-04-28T18:47:38.576Z,60.50
2023-04-28T18:50:08.624Z,60.50
2023-04-28T18:52:36.791Z,60.50
2023-04-28T18:55:05.293Z,60.60
2023-04-28T18:57:33.595Z,60.50
2023-04-28T19:00:01.855Z,60.60
2023-04-28T19:02:30.106Z,60.60
2023-04-28T19:05:00.956Z,60.60
2023-04-28T19:07:29.690Z,60.70
2023-04-28T19:09:58.625Z,60.80
2023-04-28T19:12:26.896Z,60.80
2023-04-28T19:14:55.526Z,60.80
2023-04-28T19:17:24.195Z,60.90
2023-04-28T19:19:56.038Z,60.90
2023-04-28T19:22:32.912Z,61.00
2023-04-28T19:25:01.322Z,61.00
2023-04-28T19:27:32.737Z,61.10
2023-04-28T19:30:01.237Z,61.10
2023-04-28T19:32:30.290Z,61.10
2023-04-28T19:35:01.196Z,61.10
2023-04-28T19:37:30.170Z,61.10
2023-04-28T19:39:59.999Z,61.10
2023-04-28T19:42:28.555Z,61.10
2023-04-28T19:44:58.834Z,61.10
2023-04-28T19:47:28.561Z,61.10
2023-04-28T19:49:57.657Z,61.20
2023-04-28T19:52:26.462Z,61.20
2023-04-28T19:54:55.597Z,61.20
2023-04-28T19:57:25.709Z,61.10
2023-04-28T19:59:54.549Z,61.10
2023-04-28T20:02:23.217Z,61.10
2023-04-28T20:04:51.515Z,61.00
2023-04-28T20:07:19.771Z,61.00
2023-04-28T20:09:48.142Z,61.00
2023-04-28T20:12:16.545Z,61.00
2023-04-28T20:14:49.137Z,61.00
2023-04-28T20:17:18.376Z,61.00
2023-04-28T20:19:46.515Z,61.00
2023-04-28T20:22:14.919Z,61.00
2023-04-28T20:24:43.149Z,61.00
2023-04-28T20:27:12.137Z,61.00
2023-04-28T20:29:40.320Z,61.00
2023-04-28T20:32:10.570Z,61.00
2023-04-28T20:34:38.978Z,61.00
2023-04-28T20:37:08.167Z,61.00
2023-04-28T20:39:36.292Z,61.00
2023-04-28T20:42:04.572Z,61.00
2023-04-28T20:44:33.094Z,61.00
2023-04-28T20:47:01.611Z,61.10
2023-04-28T20:49:31.525Z,61.10
2023-04-28T20:52:05.338Z,61.20
2023-04-28T20:54:36.027Z,61.20
2023-04-28T20:57:04.984Z,61.20
2023-04-28T20:59:33.490Z,61.20
2023-04-28T21:02:01.762Z,61.20
2023-04-28T21:04:31.423Z,61.20
2023-04-28T21:06:59.572Z,61.30
2023-04-28T21:09:27.754Z,61.20
2023-04-28T21:11:56.114Z,61.30
2023-04-28T21:14:24.740Z,61.20
2023-04-28T21:16:53.171Z,61.30
2023-04-28T21:19:21.442Z,61.30
2023-04-28T21:21:50.943Z,61.30
2023-04-28T21:24:19.088Z,61.30
2023-04-28T21:26:47.619Z,61.30
2023-04-28T21:29:18.365Z,61.30
2023-04-28T21:31:47.464Z,61.30
2023-04-28T21:34:15.818Z,61.30
2023-04-28T21:36:43.973Z,61.30
2023-04-28T21:39:13.532Z,61.20
2023-04-28T21:41:42.343Z,61.20
2023-04-28T21:44:10.653Z,61.10
2023-04-28T21:46:39.086Z,61.10
2023-04-28T21:49:07.721Z,61.10
2023-04-28T21:51:36.167Z,61.10
2023-04-28T21:54:04.338Z,61.00
2023-04-28T21:56:34.028Z,61.00
2023-04-28T21:59:03.141Z,61.00
2023-04-28T22:01:32.075Z,60.90
2023-04-28T22:04:01.621Z,60.90
2023-04-28T22:06:30.015Z,60.90
2023-04-28T22:08:58.241Z,60.90
2023-04-28T22:11:26.371Z,60.90
2023-04-28T22:13:56.068Z,60.90
2023-04-28T22:16:24.697Z,60.90
2023-04-28T22:18:53.019Z,60.80
2023-04-28T22:21:21.524Z,60.80
2023-04-28T22:23:49.698Z,60.80
2023-04-28T22:26:29.040Z,60.80
2023-04-28T22:28:58.532Z,60.80
2023-04-28T22:31:26.733Z,60.80
2023-04-28T22:33:54.973Z,60.80
2023-04-28T22:36:23.134Z,60.80
2023-04-28T22:38:51.518Z,60.80
2023-04-28T22:41:19.641Z,60.80
2023-04-28T22:43:47.749Z,60.80
2023-04-28T22:46:17.239Z,60.90
2023-04-28T22:48:45.719Z,60.90
2023-04-28T22:51:15.668Z,60.90
2023-04-28T22:53:43.941Z,61.00
2023-04-28T22:56:12.037Z,60.90
2023-04-28T22:58:40.156Z,60.90
2023-04-28T23:01:08.520Z,60.90
2023-04-28T23:03:38.877Z,60.90
2023-04-28T23:06:07.170Z,60.90
2023-04-28T23:08:35.857Z,60.90
2023-04-28T23:11:06.555Z,60.90
2023-04-28T23:13:34.829Z,60.90
2023-04-28T23:16:03.101Z,60.90
2023-04-28T23:18:34.006Z,60.90
2023-04-28T23:21:03.797Z,60.90
2023-04-28T23:23:33.207Z,60.90
2023-04-28T23:26:01.663Z,60.90
2023-04-28T23:28:29.804Z,60.90
2023-04-28T23:30:57.942Z,60.80
2023-04-28T23:33:26.098Z,60.80
2023-04-28T23:35:54.831Z,60.80
2023-04-28T23:38:25.522Z,60.80
2023-04-28T23:40:53.656Z,60.80
2023-04-28T23:43:21.795Z,60.80
2023-04-28T23:45:49.999Z,60.80
2023-04-28T23:48:18.587Z,60.80
2023-04-28T23:50:46.831Z,60.80
2023-04-28T23:53:14.938Z,60.80
2023-04-28T23:55:44.481Z,60.80
2023-04-28T23:58:12.675Z,60.80
